Time;durP1;ratioP1;P1;durP2;ratioP2;P2;SDS_P1;SDS_P2;PMS_P1;PMS_P2;Temp;Humidity;BMP_temperature;BMP_pressure;BME280_temperature;BME280_humidity;BME280_pressure;Samples;Min_cycle;Max_cycle;Signal;HPM_P1;HPM_P2
2022/01/05 00:00:38;;;;;;;28.38;15.48;;;-5.10;94.20;;;;;;4995558;28;20033;-81
2022/01/05 00:03:04;;;;;;;34.22;21.58;;;-5.10;94.10;;;;;;4988372;28;20092;-81
2022/01/05 00:05:33;;;;;;;35.60;19.27;;;-5.20;94.10;;;;;;4987911;28;20053;-82
2022/01/05 00:07:59;;;;;;;37.53;18.92;;;-5.20;94.30;;;;;;4995299;28;20041;-81
2022/01/05 00:10:25;;;;;;;29.00;16.05;;;-5.20;94.30;;;;;;4996784;28;20379;-81
2022/01/05 00:12:51;;;;;;;39.25;17.98;;;-5.20;94.30;;;;;;4995601;28;20484;-81
2022/01/05 00:15:17;;;;;;;42.13;21.67;;;-5.30;94.40;;;;;;4995846;28;20378;-81
2022/01/05 00:17:43;;;;;;;34.88;17.92;;;-5.20;94.60;;;;;;4995810;28;20132;-83
2022/01/05 00:20:09;;;;;;;28.02;17.33;;;-5.20;94.60;;;;;;5003388;28;20117;-80
2022/01/05 00:22:35;;;;;;;29.70;16.30;;;-5.10;94.40;;;;;;5003336;28;20376;-81
2022/01/05 00:25:01;;;;;;;32.88;17.38;;;-5.20;94.50;;;;;;4983206;28;20085;-80
2022/01/05 00:27:27;;;;;;;31.25;16.52;;;-5.20;94.50;;;;;;4991483;28;20051;-82
2022/01/05 00:29:53;;;;;;;37.38;19.83;;;-5.20;94.60;;;;;;4989992;28;20384;-80
2022/01/05 00:32:18;;;;;;;35.38;19.35;;;-5.10;94.60;;;;;;4988360;28;20589;-83
2022/01/05 00:34:44;;;;;;;33.80;19.48;;;-5.10;94.60;;;;;;4995403;28;20019;-81
2022/01/05 00:37:10;;;;;;;37.45;19.77;;;-5.00;94.70;;;;;;4995894;28;20036;-82
2022/01/05 00:39:36;;;;;;;33.92;18.58;;;-4.90;94.80;;;;;;4995410;28;20149;-81
2022/01/05 00:42:02;;;;;;;30.67;17.00;;;-4.90;94.60;;;;;;4995205;28;20054;-82
2022/01/05 00:44:28;;;;;;;37.20;21.00;;;-4.90;94.50;;;;;;4995869;28;20022;-81
2022/01/05 00:46:54;;;;;;;36.00;18.35;;;-4.80;94.60;;;;;;4995485;28;20056;-82
2022/01/05 00:49:20;;;;;;;30.70;17.45;;;-4.90;94.40;;;;;;4995733;28;20033;-82
2022/01/05 00:51:46;;;;;;;34.42;16.63;;;-4.90;94.40;;;;;;4996669;28;20034;-81
2022/01/05 00:54:12;;;;;;;42.58;18.83;;;-5.00;94.30;;;;;;4996402;28;20034;-82
2022/01/05 00:56:37;;;;;;;37.72;19.50;;;-5.00;94.50;;;;;;4994604;28;20029;-83
2022/01/05 00:59:03;;;;;;;33.60;18.85;;;-5.00;94.50;;;;;;4995722;28;20034;-82
2022/01/05 01:01:29;;;;;;;35.83;17.10;;;-4.90;94.60;;;;;;4995903;28;20026;-82
2022/01/05 01:03:55;;;;;;;28.70;16.55;;;-4.80;94.50;;;;;;4995677;28;20073;-82
2022/01/05 01:06:21;;;;;;;31.50;17.75;;;-4.90;94.40;;;;;;4996019;28;20058;-80
2022/01/05 01:08:47;;;;;;;34.45;18.73;;;-4.90;94.50;;;;;;4996199;28;20033;-82
2022/01/05 01:11:13;;;;;;;38.13;19.88;;;-4.90;94.60;;;;;;4997905;28;20026;-82
2022/01/05 01:13:39;;;;;;;43.95;21.15;;;-4.80;94.70;;;;;;5029012;28;20044;-81
2022/01/05 01:16:05;;;;;;;66.20;23.23;;;-4.70;95.00;;;;;;5013976;28;20015;-83
2022/01/05 01:18:31;;;;;;;30.30;18.73;;;-4.70;94.50;;;;;;5000963;28;20046;-81
2022/01/05 01:20:56;;;;;;;33.03;16.13;;;-4.60;94.60;;;;;;4999902;28;20022;-81
2022/01/05 01:23:23;;;;;;;23.15;13.35;;;-4.70;94.30;;;;;;4997289;28;20034;-81
2022/01/05 01:25:50;;;;;;;33.40;17.40;;;-4.70;94.30;;;;;;4996459;28;20049;-81
2022/01/05 01:28:16;;;;;;;32.33;16.23;;;-4.80;94.40;;;;;;4996073;28;20026;-81
2022/01/05 01:30:42;;;;;;;36.67;21.20;;;-4.80;94.50;;;;;;4995103;28;20028;-82
2022/01/05 01:33:08;;;;;;;38.08;18.50;;;-4.70;94.50;;;;;;4994916;28;20065;-82
2022/01/05 01:35:33;;;;;;;33.83;18.60;;;-4.70;94.60;;;;;;4994825;28;20097;-81
2022/01/05 01:37:59;;;;;;;36.33;17.60;;;-4.60;94.60;;;;;;4994852;28;20039;-80
2022/01/05 01:40:25;;;;;;;40.50;18.13;;;-4.50;94.60;;;;;;4994479;28;20030;-81
2022/01/05 01:42:51;;;;;;;33.83;19.83;;;-4.40;94.60;;;;;;4995036;28;20530;-81
2022/01/05 01:45:17;;;;;;;31.23;18.70;;;-4.30;94.50;;;;;;4995165;28;20022;-81
2022/01/05 01:47:43;;;;;;;32.35;18.80;;;-4.30;94.30;;;;;;4994851;28;20034;-80
2022/01/05 01:50:11;;;;;;;35.20;19.17;;;-4.20;94.20;;;;;;4994259;28;20030;-81
2022/01/05 01:52:37;;;;;;;37.78;16.70;;;-4.10;94.10;;;;;;4994940;28;20041;-82
2022/01/05 01:55:04;;;;;;;32.63;17.67;;;-4.20;93.90;;;;;;4994722;28;20026;-81
2022/01/05 01:57:35;;;;;;;30.52;19.20;;;-4.20;93.90;;;;;;4994968;28;20030;-82
2022/01/05 02:00:01;;;;;;;34.80;18.25;;;-4.30;93.90;;;;;;4994783;28;20019;-82
2022/01/05 02:02:27;;;;;;;38.30;18.97;;;-4.30;94.10;;;;;;4994565;28;20034;-82
2022/01/05 02:04:53;;;;;;;25.90;15.15;;;-4.30;93.90;;;;;;4994553;28;20291;-81
2022/01/05 02:07:19;;;;;;;32.88;19.23;;;-4.40;94.00;;;;;;4994488;28;20034;-82
2022/01/05 02:09:45;;;;;;;37.95;18.73;;;-4.50;94.00;;;;;;4994963;28;20086;-82
2022/01/05 02:12:11;;;;;;;37.15;18.35;;;-4.50;94.10;;;;;;5009304;28;20034;-81
2022/01/05 02:14:37;;;;;;;36.28;18.50;;;-4.50;94.20;;;;;;4994346;28;20026;-81
2022/01/05 02:17:09;;;;;;;35.22;18.80;;;-4.40;94.30;;;;;;4994620;28;20058;-81
2022/01/05 02:19:35;;;;;;;36.75;18.70;;;-4.30;94.40;;;;;;4996159;28;20490;-81
2022/01/05 02:22:02;;;;;;;27.70;16.05;;;-4.30;94.30;;;;;;4995216;28;20027;-81
2022/01/05 02:24:28;;;;;;;36.90;18.40;;;-4.30;94.00;;;;;;4994036;28;20026;-83
2022/01/05 02:26:54;;;;;;;34.00;18.13;;;-4.40;94.20;;;;;;4994040;28;20549;-81
2022/01/05 02:29:21;;;;;;;30.85;17.60;;;-4.30;94.30;;;;;;4993370;28;20034;-80
2022/01/05 02:31:47;;;;;;;34.78;17.95;;;-4.30;94.20;;;;;;4993849;28;20176;-80
2022/01/05 02:34:17;;;;;;;36.55;18.40;;;-4.30;94.20;;;;;;4993921;28;20042;-81
2022/01/05 02:36:43;;;;;;;37.97;20.13;;;-4.30;94.20;;;;;;4993611;28;20068;-81
2022/01/05 02:39:09;;;;;;;39.15;19.92;;;-4.30;94.40;;;;;;4990017;28;20109;-81
2022/01/05 02:41:34;;;;;;;41.88;20.35;;;-4.30;94.40;;;;;;4993551;28;20522;-82
2022/01/05 02:44:00;;;;;;;41.00;19.30;;;-4.40;94.50;;;;;;4993956;28;20028;-84
2022/01/05 02:46:26;;;;;;;39.78;18.45;;;-4.50;94.70;;;;;;4993959;28;20025;-82
2022/01/05 02:48:53;;;;;;;33.97;18.90;;;-4.40;94.90;;;;;;4992646;28;20026;-83
2022/01/05 02:51:20;;;;;;;30.77;17.20;;;-4.50;95.00;;;;;;4993855;28;20026;-82
2022/01/05 02:53:47;;;;;;;41.15;19.23;;;-4.40;95.00;;;;;;4993883;28;20026;-83
2022/01/05 02:56:13;;;;;;;35.17;18.98;;;-4.50;95.10;;;;;;4995137;28;20391;-82
2022/01/05 02:58:39;;;;;;;44.85;21.55;;;-4.40;95.30;;;;;;4999046;28;20030;-81
2022/01/05 03:01:06;;;;;;;40.08;18.92;;;-4.40;95.40;;;;;;5003237;28;20074;-82
2022/01/05 03:03:32;;;;;;;25.90;15.05;;;-4.40;95.30;;;;;;4994872;28;20034;-81
2022/01/05 03:05:58;;;;;;;41.00;19.77;;;-4.30;95.30;;;;;;4994124;28;20027;-83
2022/01/05 03:08:24;;;;;;;40.35;19.45;;;-4.30;95.20;;;;;;5008569;28;20515;-83
2022/01/05 03:10:50;;;;;;;39.78;20.63;;;-4.30;95.10;;;;;;4993460;28;20022;-81
2022/01/05 03:13:15;;;;;;;38.67;20.17;;;-4.20;95.20;;;;;;4993447;28;20387;-81
2022/01/05 03:15:41;;;;;;;38.85;19.23;;;-4.20;95.10;;;;;;4994136;28;20105;-81
2022/01/05 03:18:08;;;;;;;41.60;20.90;;;-4.20;95.20;;;;;;4996122;28;20033;-81
2022/01/05 03:20:34;;;;;;;38.83;20.50;;;-4.20;95.20;;;;;;4996033;28;20030;-82
2022/01/05 03:23:03;;;;;;;33.75;22.20;;;-4.20;95.10;;;;;;4998565;28;20066;-82
2022/01/05 03:25:30;;;;;;;41.83;20.58;;;-4.20;95.10;;;;;;5016329;28;20022;-82
2022/01/05 03:27:56;;;;;;;35.45;19.58;;;-4.10;95.20;;;;;;5002268;28;20050;-81
2022/01/05 03:30:25;;;;;;;40.05;21.63;;;-4.00;95.10;;;;;;4996061;28;20023;-81
2022/01/05 03:35:25;;;;;;;41.03;24.88;;;-4.00;94.90;;;;;;4995823;28;20034;-80
2022/01/05 03:37:51;;;;;;;45.30;23.02;;;-4.00;94.90;;;;;;5009204;28;20034;-81
2022/01/05 03:40:17;;;;;;;45.08;22.65;;;-4.00;94.80;;;;;;4993023;28;20168;-81
2022/01/05 03:42:43;;;;;;;47.55;23.50;;;-4.00;94.80;;;;;;4996602;28;20085;-81
2022/01/05 03:45:09;;;;;;;51.17;23.88;;;-3.90;94.80;;;;;;4996649;28;20109;-81
2022/01/05 03:47:35;;;;;;;50.90;25.05;;;-3.80;94.90;;;;;;4996976;28;20158;-81
2022/01/05 03:50:01;;;;;;;47.90;23.88;;;-3.80;94.60;;;;;;4997894;28;20027;-82
2022/01/05 03:52:27;;;;;;;45.17;23.50;;;-3.80;94.60;;;;;;4999386;28;20038;-81
2022/01/05 03:54:53;;;;;;;44.60;23.00;;;-3.80;94.50;;;;;;4997321;28;20026;-83
2022/01/05 03:57:18;;;;;;;51.53;25.00;;;-3.80;94.40;;;;;;4996750;28;20030;-83
2022/01/05 03:59:44;;;;;;;50.10;25.73;;;-3.80;94.30;;;;;;4996913;28;20023;-82
2022/01/05 04:02:10;;;;;;;48.72;25.45;;;-3.80;94.20;;;;;;4996289;28;20554;-81
2022/01/05 04:04:36;;;;;;;42.03;21.23;;;-3.80;94.20;;;;;;4996540;28;20026;-82
2022/01/05 04:07:02;;;;;;;48.05;24.13;;;-3.70;94.20;;;;;;4996180;28;20026;-81
2022/01/05 04:09:28;;;;;;;51.35;26.63;;;-3.80;94.00;;;;;;4996582;28;20050;-81
2022/01/05 04:11:54;;;;;;;42.97;24.00;;;-3.80;94.00;;;;;;4996353;28;20065;-82
2022/01/05 04:14:20;;;;;;;40.25;23.08;;;-3.80;94.10;;;;;;5011537;28;20027;-81
2022/01/05 04:16:45;;;;;;;44.40;23.55;;;-3.80;94.00;;;;;;4997827;28;20022;-82
2022/01/05 04:19:11;;;;;;;44.90;25.35;;;-3.80;94.00;;;;;;4996829;28;20030;-81
2022/01/05 04:21:37;;;;;;;52.60;24.92;;;-3.70;94.00;;;;;;4996521;28;20492;-80
2022/01/05 04:24:03;;;;;;;44.63;23.35;;;-3.70;93.80;;;;;;4996313;28;20030;-81
2022/01/05 04:26:29;;;;;;;52.47;24.60;;;-3.80;93.60;;;;;;4996502;28;20026;-80
2022/01/05 04:28:54;;;;;;;48.25;22.50;;;-3.80;93.70;;;;;;4997759;28;20026;-81
2022/01/05 04:31:20;;;;;;;43.03;23.70;;;-3.80;93.80;;;;;;5015631;28;20029;-81
2022/01/05 04:33:46;;;;;;;40.85;22.08;;;-3.80;93.80;;;;;;4997668;28;20476;-81
2022/01/05 04:36:12;;;;;;;35.33;18.90;;;-3.80;93.60;;;;;;4997148;28;20030;-81
2022/01/05 04:38:38;;;;;;;49.83;23.48;;;-3.90;93.60;;;;;;4996001;28;20034;-82
2022/01/05 04:41:04;;;;;;;45.15;25.02;;;-3.90;93.70;;;;;;4995086;28;20452;-81
2022/01/05 04:43:30;;;;;;;39.70;22.60;;;-3.80;93.70;;;;;;4995840;28;20026;-80
2022/01/05 04:45:56;;;;;;;44.65;21.77;;;-3.80;93.80;;;;;;4995677;28;20380;-80
2022/01/05 04:48:22;;;;;;;40.28;20.35;;;-3.80;93.80;;;;;;4996268;28;20388;-83
2022/01/05 04:50:48;;;;;;;40.33;22.30;;;-3.80;93.70;;;;;;4995775;28;20025;-83
2022/01/05 04:53:14;;;;;;;38.00;20.08;;;-3.90;93.70;;;;;;4994663;28;20391;-83
2022/01/05 04:55:41;;;;;;;45.92;22.20;;;-3.80;93.70;;;;;;4995972;28;20022;-81
2022/01/05 04:58:07;;;;;;;43.35;20.70;;;-3.80;93.70;;;;;;4995314;28;20503;-81
2022/01/05 05:00:32;;;;;;;35.33;19.33;;;-3.80;93.60;;;;;;5010582;28;20030;-81
2022/01/05 05:02:58;;;;;;;40.00;20.77;;;-3.90;93.40;;;;;;4995425;28;20574;-83
2022/01/05 05:05:24;;;;;;;37.33;20.42;;;-3.90;93.50;;;;;;4995576;28;20038;-81
2022/01/05 05:07:50;;;;;;;46.08;22.13;;;-3.90;93.60;;;;;;4995717;28;20026;-82
2022/01/05 05:10:16;;;;;;;39.55;19.92;;;-3.90;93.60;;;;;;4995627;28;20018;-82
2022/01/05 05:12:42;;;;;;;38.10;21.00;;;-3.80;93.60;;;;;;4995560;28;20101;-81
2022/01/05 05:15:08;;;;;;;39.05;22.45;;;-3.90;93.60;;;;;;4995464;28;20027;-81
2022/01/05 05:17:34;;;;;;;39.95;20.23;;;-3.80;93.60;;;;;;4997897;28;20023;-80
2022/01/05 05:20:00;;;;;;;42.25;23.15;;;-3.80;93.60;;;;;;5007667;28;20018;-82
2022/01/05 05:22:25;;;;;;;38.53;18.45;;;-3.80;93.50;;;;;;5012596;28;20519;-83
2022/01/05 05:24:51;;;;;;;38.42;19.50;;;-3.80;93.50;;;;;;4995118;28;20030;-83
2022/01/05 05:27:17;;;;;;;35.38;20.77;;;-3.80;93.50;;;;;;4994998;28;20033;-82
2022/01/05 05:29:43;;;;;;;42.70;22.05;;;-3.70;93.70;;;;;;4994731;28;20097;-83
2022/01/05 05:32:09;;;;;;;43.95;22.75;;;-3.80;93.30;;;;;;4996654;28;20026;-81
2022/01/05 05:34:35;;;;;;;44.20;23.13;;;-3.70;93.30;;;;;;4994981;28;20057;-82
2022/01/05 05:37:01;;;;;;;35.97;18.73;;;-3.70;93.30;;;;;;4995297;28;20026;-82
2022/01/05 05:39:27;;;;;;;42.28;20.67;;;-3.80;93.20;;;;;;4994456;28;20037;-82
2022/01/05 05:41:53;;;;;;;37.50;20.30;;;-3.90;93.20;;;;;;5006248;28;20046;-81
2022/01/05 05:44:19;;;;;;;39.10;19.65;;;-3.90;93.20;;;;;;5009142;28;20037;-81
2022/01/05 05:46:44;;;;;;;41.20;21.27;;;-4.00;93.30;;;;;;4996492;28;20046;-82
2022/01/05 05:49:10;;;;;;;36.25;20.52;;;-3.90;93.30;;;;;;4996463;28;20095;-83
2022/01/05 05:51:36;;;;;;;43.05;20.08;;;-4.00;93.30;;;;;;4999770;28;20081;-80
2022/01/05 05:54:03;;;;;;;45.33;20.35;;;-4.00;93.30;;;;;;4994491;28;20027;-81
2022/01/05 05:56:29;;;;;;;;;;;-4.00;93.20;;;;;;4994885;28;20440;-83
2022/01/05 05:58:55;;;;;;;33.00;19.38;;;-4.10;93.30;;;;;;5003523;28;19952;-82
2022/01/05 06:01:21;;;;;;;38.85;19.02;;;-4.10;93.20;;;;;;5004532;28;20062;-80
2022/01/05 06:03:47;;;;;;;35.50;18.80;;;-4.20;93.30;;;;;;5000868;28;20035;-81
2022/01/05 06:06:13;;;;;;;37.38;17.10;;;-4.30;93.30;;;;;;4995478;28;20019;-81
2022/01/05 06:08:40;;;;;;;35.08;16.48;;;-4.30;93.40;;;;;;5010562;28;20133;-83
2022/01/05 06:11:07;;;;;;;32.92;15.38;;;-4.40;93.40;;;;;;4998806;28;20439;-81
2022/01/05 06:13:33;;;;;;;27.92;16.50;;;-4.30;93.40;;;;;;5005238;28;20086;-83
2022/01/05 06:15:58;;;;;;;35.80;18.02;;;-4.40;93.40;;;;;;4997162;28;20057;-82
2022/01/05 06:18:24;;;;;;;33.47;17.92;;;-4.40;93.50;;;;;;4995974;28;20022;-84
2022/01/05 06:20:50;;;;;;;29.75;17.13;;;-4.30;93.50;;;;;;4996203;28;20026;-82
2022/01/05 06:23:16;;;;;;;29.08;16.42;;;-4.30;93.50;;;;;;4996680;28;20038;-81
2022/01/05 06:25:42;;;;;;;28.20;17.02;;;-4.30;93.40;;;;;;4996233;28;20090;-83
2022/01/05 06:28:11;;;;;;;29.70;15.63;;;-4.30;93.40;;;;;;5002774;28;20056;-83
2022/01/05 06:30:40;;;;;;;37.17;15.45;;;-4.20;93.40;;;;;;5001240;28;20537;-83
2022/01/05 06:33:07;;;;;;;26.20;16.88;;;-4.30;93.20;;;;;;4994815;28;20464;-83
2022/01/05 06:35:33;;;;;;;26.60;17.10;;;-4.30;93.30;;;;;;4994343;28;20030;-83
2022/01/05 06:37:59;;;;;;;36.47;16.73;;;-4.30;93.30;;;;;;4993703;28;20034;-82
2022/01/05 06:40:25;;;;;;;31.00;15.35;;;-4.30;93.20;;;;;;4992032;28;20396;-84
2022/01/05 06:42:51;;;;;;;30.63;15.77;;;-4.20;93.30;;;;;;4994206;28;20081;-80
2022/01/05 06:45:18;;;;;;;31.13;15.20;;;-4.20;93.20;;;;;;5000992;28;20483;-81
2022/01/05 06:47:44;;;;;;;35.88;17.70;;;-4.20;93.20;;;;;;4994109;28;20507;-82
2022/01/05 06:50:10;;;;;;;27.67;14.75;;;-4.30;93.00;;;;;;4993716;28;20023;-81
2022/01/05 06:52:38;;;;;;;32.97;15.95;;;-4.30;93.20;;;;;;4993082;28;20519;-83
2022/01/05 06:55:04;;;;;;;29.92;14.77;;;-4.30;93.10;;;;;;4993339;28;20033;-83
2022/01/05 06:57:30;;;;;;;33.92;17.55;;;-4.30;93.20;;;;;;4992875;28;20045;-82
2022/01/05 06:59:56;;;;;;;24.08;13.20;;;-4.30;93.20;;;;;;4993615;28;20098;-82
2022/01/05 07:02:22;;;;;;;28.33;15.88;;;-4.40;93.30;;;;;;4993198;28;20145;-82
2022/01/05 07:04:48;;;;;;;24.75;14.10;;;-4.30;93.30;;;;;;4993737;28;20098;-82
2022/01/05 07:07:14;;;;;;;36.10;16.20;;;-4.30;93.30;;;;;;5008676;28;20026;-82
2022/01/05 07:09:39;;;;;;;29.42;16.65;;;-4.30;93.30;;;;;;4993857;28;20139;-81
2022/01/05 07:12:06;;;;;;;33.22;16.92;;;-4.30;93.40;;;;;;4993479;28;20511;-81
2022/01/05 07:14:32;;;;;;;30.70;16.75;;;-4.20;93.50;;;;;;4993575;28;20018;-83
2022/01/05 07:16:58;;;;;;;29.90;14.65;;;-4.10;93.40;;;;;;4995885;28;20041;-82
2022/01/05 07:19:24;;;;;;;27.77;14.65;;;-4.00;93.40;;;;;;5012422;28;20030;-82
2022/01/05 07:21:49;;;;;;;28.52;15.80;;;-4.00;93.30;;;;;;4996996;28;20038;-82
2022/01/05 07:24:17;;;;;;;32.65;18.55;;;-3.90;93.30;;;;;;4996707;28;20037;-82
2022/01/05 07:26:53;;;;;;;28.77;17.55;;;-3.90;93.30;;;;;;4997464;28;20018;-82
2022/01/05 07:29:19;;;;;;;27.27;15.90;;;-3.80;93.20;;;;;;4996877;28;20066;-81
2022/01/05 07:31:45;;;;;;;31.63;14.82;;;-3.80;93.20;;;;;;4996965;28;20114;-82
2022/01/05 07:34:12;;;;;;;27.67;15.00;;;-3.80;93.10;;;;;;5011906;28;20030;-80
2022/01/05 07:36:41;;;;;;;26.23;15.75;;;-3.90;93.00;;;;;;4997338;28;20030;-84
2022/01/05 07:39:07;;;;;;;26.40;14.75;;;-3.90;93.10;;;;;;4997919;28;20053;-82
2022/01/05 07:41:34;;;;;;;37.67;17.67;;;-4.00;93.10;;;;;;5001524;28;20078;-81
2022/01/05 07:43:59;;;;;;;30.50;18.42;;;-4.00;93.20;;;;;;4997599;28;20384;-82
2022/01/05 07:46:25;;;;;;;29.88;16.33;;;-3.90;93.30;;;;;;4995511;28;20022;-81
2022/01/05 07:48:52;;;;;;;29.70;18.00;;;-3.80;93.30;;;;;;4996690;28;20386;-82
2022/01/05 07:51:18;;;;;;;27.35;17.08;;;-3.80;93.20;;;;;;4998255;28;20021;-82
2022/01/05 07:53:44;;;;;;;32.20;17.40;;;-3.70;93.20;;;;;;5000784;28;20489;-82
2022/01/05 07:56:10;;;;;;;35.00;17.38;;;-3.70;93.10;;;;;;5005339;28;20045;-83
2022/01/05 07:58:38;;;;;;;31.05;18.83;;;-3.70;93.10;;;;;;5018938;28;20061;-84
2022/01/05 08:01:04;;;;;;;33.75;16.13;;;-3.80;93.10;;;;;;5011342;28;20123;-81
2022/01/05 08:03:33;;;;;;;31.77;17.08;;;-3.80;93.30;;;;;;5013644;28;20069;-83
2022/01/05 08:06:01;;;;;;;30.50;18.08;;;-3.80;93.40;;;;;;4998294;28;20085;-85
2022/01/05 08:08:27;;;;;;;34.22;18.58;;;-3.70;93.50;;;;;;4997810;28;20101;-84
2022/01/05 08:10:53;;;;;;;31.95;18.35;;;-3.70;93.50;;;;;;4996970;28;20427;-83
2022/01/05 08:13:19;;;;;;;29.05;17.55;;;-3.70;93.50;;;;;;4996934;28;20031;-84
2022/01/05 08:15:45;;;;;;;40.75;21.77;;;-3.70;93.60;;;;;;4997498;28;20022;-85
2022/01/05 08:18:11;;;;;;;34.15;21.08;;;-3.70;93.50;;;;;;4997195;28;20042;-84
2022/01/05 08:20:36;;;;;;;35.15;18.92;;;-3.70;93.60;;;;;;4996477;28;20046;-81
2022/01/05 08:23:03;;;;;;;33.55;18.92;;;-3.70;93.80;;;;;;4995560;28;20026;-82
2022/01/05 08:25:29;;;;;;;33.45;19.60;;;-3.70;93.90;;;;;;4995561;28;20015;-82
2022/01/05 08:27:54;;;;;;;29.77;17.20;;;-3.70;93.80;;;;;;4995619;28;20101;-82
2022/01/05 08:30:24;;;;;;;28.70;17.35;;;-3.70;93.80;;;;;;4995748;28;20026;-82
2022/01/05 08:32:52;;;;;;;32.03;19.30;;;-3.70;94.10;;;;;;4996071;28;20026;-82
2022/01/05 08:35:21;;;;;;;39.53;18.58;;;-3.60;94.00;;;;;;5011286;28;20069;-83
2022/01/05 08:37:48;;;;;;;31.60;17.55;;;-3.60;94.00;;;;;;4996427;28;20053;-82
2022/01/05 08:40:16;;;;;;;36.42;19.15;;;-3.60;94.00;;;;;;4995313;28;20476;-84
2022/01/05 08:42:42;;;;;;;32.35;17.67;;;-3.60;93.90;;;;;;4995320;28;20571;-82
2022/01/05 08:45:09;;;;;;;33.75;15.48;;;-3.70;93.90;;;;;;4995278;28;20026;-84
2022/01/05 08:47:34;;;;;;;23.70;13.10;;;-3.70;93.90;;;;;;4995466;28;20061;-82
2022/01/05 08:50:01;;;;;;;32.08;16.23;;;-3.70;94.00;;;;;;4995509;28;20777;-83
2022/01/05 08:52:26;;;;;;;31.35;15.68;;;-3.70;94.10;;;;;;4996648;28;20502;-82
2022/01/05 08:54:52;;;;;;;24.95;16.05;;;-3.70;94.20;;;;;;5012666;28;20023;-84
2022/01/05 08:57:19;;;;;;;26.10;15.50;;;-3.60;94.20;;;;;;5017236;28;20031;-82
2022/01/05 08:59:45;;;;;;;24.10;14.48;;;-3.70;94.10;;;;;;5000117;28;20018;-83
2022/01/05 09:02:15;;;;;;;26.80;13.20;;;-3.60;94.20;;;;;;5002487;28;20053;-84
2022/01/05 09:04:41;;;;;;;22.08;13.60;;;-3.70;94.20;;;;;;5006538;28;20029;-82
2022/01/05 09:07:07;;;;;;;21.80;13.77;;;-3.70;94.20;;;;;;5001733;28;20023;-86
2022/01/05 09:09:33;;;;;;;22.77;13.07;;;-3.60;94.20;;;;;;4997604;28;20049;-83
2022/01/05 09:11:59;;;;;;;28.63;13.70;;;-3.60;94.20;;;;;;5004536;28;20122;-84
2022/01/05 09:14:25;;;;;;;23.23;12.40;;;-3.60;94.20;;;;;;4996276;28;20015;-82
2022/01/05 09:16:52;;;;;;;25.52;14.55;;;-3.60;94.20;;;;;;4995787;28;20109;-82
2022/01/05 09:19:18;;;;;;;22.33;14.35;;;-3.60;94.20;;;;;;4997668;28;20447;-83
2022/01/05 09:21:48;;;;;;;25.60;14.05;;;-3.60;94.10;;;;;;4996511;28;20030;-82
2022/01/05 09:24:18;;;;;;;28.98;13.60;;;-3.60;94.10;;;;;;5008489;28;20446;-83
2022/01/05 09:26:44;;;;;;;23.33;13.75;;;-3.60;94.00;;;;;;4990431;28;20023;-83
2022/01/05 09:29:10;;;;;;;20.85;12.93;;;-3.60;94.10;;;;;;4984416;28;20026;-80
2022/01/05 09:31:36;;;;;;;26.35;14.60;;;-3.60;94.10;;;;;;4991117;28;20050;-80
2022/01/05 09:34:02;;;;;;;27.40;14.38;;;-3.60;94.10;;;;;;4998433;28;20029;-83
2022/01/05 09:36:35;;;;;;;23.48;14.77;;;-3.60;94.10;;;;;;4990209;28;20027;-83
2022/01/05 09:42:05;;;;;;;24.52;14.02;;;-3.60;93.90;;;;;;4994381;28;20061;-83
2022/01/05 09:44:41;;;;;;;31.85;15.20;;;-3.50;93.80;;;;;;4995118;28;20432;-82
2022/01/05 09:47:29;;;;;;;26.00;13.65;;;-3.60;93.70;;;;;;4992850;28;20364;-84
2022/01/05 09:50:03;;;;;;;30.90;13.27;;;-3.70;93.30;;;;;;4990268;28;20484;-82
2022/01/05 09:52:31;;;;;;;27.95;12.70;;;-3.90;93.40;;;;;;4974554;28;20077;-83
2022/01/05 09:54:58;;;;;;;25.65;13.63;;;-4.00;93.90;;;;;;4991226;28;20030;-80
2022/01/05 09:57:24;;;;;;;26.53;14.63;;;-4.10;93.90;;;;;;4993183;28;20023;-80
2022/01/05 09:59:51;;;;;;;30.88;14.13;;;-4.20;94.20;;;;;;4989221;28;20351;-82
2022/01/05 10:02:18;;;;;;;29.38;13.93;;;-4.20;94.00;;;;;;4989053;28;20531;-78
2022/01/05 10:04:47;;;;;;;31.90;13.70;;;-4.30;94.20;;;;;;4993582;28;20029;-81
2022/01/05 10:07:14;;;;;;;28.88;14.02;;;-4.30;94.70;;;;;;4980451;28;20096;-79
2022/01/05 10:09:41;;;;;;;27.20;13.90;;;-4.30;94.90;;;;;;4989371;28;20030;-79
2022/01/05 10:12:08;;;;;;;;;;;-4.20;94.90;;;;;;4989904;28;20085;-77
2022/01/05 10:14:34;;;;;;;25.13;13.88;;;-4.20;94.80;;;;;;5000239;28;19956;-79
2022/01/05 10:17:15;;;;;;;24.35;13.30;;;-4.20;95.00;;;;;;4994257;28;20030;-80
2022/01/05 10:19:42;;;;;;;25.98;12.77;;;-4.20;94.90;;;;;;4993606;28;20068;-81
2022/01/05 10:22:32;;;;;;;23.70;11.32;;;-4.20;94.80;;;;;;4992190;28;20030;-81
2022/01/05 10:25:01;;;;;;;22.67;11.23;;;-4.20;94.80;;;;;;4993246;28;20030;-80
2022/01/05 10:27:28;;;;;;;24.95;11.75;;;-4.20;94.60;;;;;;4993739;28;20511;-81
2022/01/05 10:29:58;;;;;;;24.37;10.67;;;-4.20;94.70;;;;;;4993662;28;20037;-80
2022/01/05 10:32:26;;;;;;;19.92;10.93;;;-4.20;94.80;;;;;;4993232;28;20125;-80
2022/01/05 10:35:08;;;;;;;29.75;16.58;;;-4.20;94.80;;;;;;4994048;28;20037;-81
2022/01/05 10:37:35;;;;;;;23.20;12.57;;;-4.20;94.80;;;;;;4993545;28;20026;-80
2022/01/05 10:40:06;;;;;;;23.42;14.35;;;-4.20;94.80;;;;;;4993285;28;20097;-80
2022/01/05 10:42:32;;;;;;;21.95;13.43;;;-4.20;94.80;;;;;;4992992;28;20162;-80
2022/01/05 10:44:59;;;;;;;23.77;12.07;;;-4.20;94.70;;;;;;4994098;28;20488;-80
2022/01/05 10:47:25;;;;;;;27.50;12.73;;;-4.20;94.80;;;;;;4994704;28;20416;-80
2022/01/05 10:49:52;;;;;;;22.75;13.07;;;-4.20;94.90;;;;;;5007711;28;20034;-78
2022/01/05 10:52:28;;;;;;;20.37;10.40;;;-4.10;95.00;;;;;;4974547;28;20110;-79
2022/01/05 10:55:07;;;;;;;19.35;11.05;;;-4.10;94.90;;;;;;4974677;28;20343;-79
2022/01/05 10:57:32;;;;;;;21.90;11.48;;;-4.20;95.00;;;;;;4974173;28;20027;-79
2022/01/05 10:59:58;;;;;;;27.30;15.25;;;-4.10;95.10;;;;;;4973771;28;20369;-79
2022/01/05 11:02:27;;;;;;;26.23;14.70;;;-4.10;95.20;;;;;;4973289;28;20461;-81
2022/01/05 11:05:14;;;;;;;17.80;9.15;;;-4.10;95.20;;;;;;4973385;28;20023;-79
2022/01/05 11:07:42;;;;;;;29.00;16.00;;;-4.00;95.30;;;;;;4973740;28;20083;-80
2022/01/05 11:10:14;;;;;;;27.63;14.80;;;-4.00;95.40;;;;;;4974662;28;20062;-80
2022/01/05 11:12:42;;;;;;;22.38;12.73;;;-4.00;95.40;;;;;;4988295;28;20034;-79
2022/01/05 11:15:31;;;;;;;22.88;15.40;;;-4.00;95.20;;;;;;4973065;28;20030;-80
2022/01/05 11:18:17;;;;;;;26.65;14.68;;;-4.10;95.10;;;;;;4988161;28;20373;-80
2022/01/05 11:20:47;;;;;;;24.33;14.67;;;-4.10;95.20;;;;;;4973199;28;20023;-79
2022/01/05 11:23:14;;;;;;;28.95;14.55;;;-4.10;95.20;;;;;;4972778;28;20038;-80
2022/01/05 11:25:42;;;;;;;27.40;15.55;;;-4.10;95.20;;;;;;4975216;28;20133;-81
2022/01/05 11:28:08;;;;;;;27.05;16.42;;;-4.10;95.30;;;;;;4992958;28;20105;-78
2022/01/05 11:30:35;;;;;;;26.35;15.40;;;-4.10;95.30;;;;;;4974287;28;20412;-80
2022/01/05 11:33:03;;;;;;;28.42;15.98;;;-4.10;95.40;;;;;;4973350;28;20026;-80
2022/01/05 11:35:29;;;;;;;27.55;16.20;;;-4.10;95.40;;;;;;4973217;28;20042;-80
2022/01/05 11:37:54;;;;;;;28.25;15.63;;;-4.10;95.50;;;;;;4972060;28;20221;-81
2022/01/05 11:40:22;;;;;;;26.77;14.90;;;-4.10;95.50;;;;;;4973461;28;20481;-82
2022/01/05 11:42:51;;;;;;;27.20;15.35;;;-4.00;95.60;;;;;;4981226;28;20049;-83
2022/01/05 11:45:34;;;;;;;35.50;16.80;;;-4.00;95.70;;;;;;4988843;28;20019;-87
2022/01/05 11:48:31;;;;;;;29.55;16.77;;;-4.00;95.70;;;;;;4976633;28;20031;-83
2022/01/05 11:51:03;;;;;;;26.88;16.17;;;-3.90;95.60;;;;;;4980539;28;20019;-83
2022/01/05 11:53:39;;;;;;;35.05;17.85;;;-3.90;95.60;;;;;;4991583;28;20383;-83
2022/01/05 11:56:07;;;;;;;30.70;17.60;;;-3.90;95.70;;;;;;4996057;28;20030;-82
2022/01/05 11:58:34;;;;;;;;;;;-3.90;95.70;;;;;;4994225;28;20034;-80
2022/01/05 12:01:19;;;;;;;34.88;17.42;;;-3.90;95.70;;;;;;4993460;28;19913;-80
2022/01/05 12:03:57;;;;;;;35.90;17.92;;;-3.80;95.90;;;;;;5000724;28;20061;-80
2022/01/05 12:06:23;;;;;;;52.65;22.13;;;-3.80;95.90;;;;;;5002912;28;20050;-81
2022/01/05 12:08:52;;;;;;;42.92;24.02;;;-3.80;95.90;;;;;;5001321;28;20023;-83
2022/01/05 12:11:42;;;;;;;40.78;19.70;;;-3.80;96.00;;;;;;4995627;28;20022;-83
2022/01/05 12:14:20;;;;;;;35.72;18.02;;;-3.70;96.00;;;;;;4988000;28;20041;-86
2022/01/05 12:19:34;;;;;;;29.92;18.85;;;-3.70;96.00;;;;;;4998863;28;20106;-84
2022/01/05 12:22:17;;;;;;;27.90;14.88;;;-3.60;96.10;;;;;;4984155;28;20015;-85
2022/01/05 12:25:04;;;;;;;38.92;20.77;;;-3.50;96.20;;;;;;5002963;28;20025;-83
2022/01/05 12:27:32;;;;;;;;;;;-3.50;96.30;;;;;;4997896;28;20045;-82
2022/01/05 12:30:18;;;;;;;32.15;18.83;;;-3.50;96.20;;;;;;5003622;28;19913;-85
2022/01/05 12:32:46;;;;;;;38.10;20.08;;;-3.50;96.30;;;;;;4998769;28;20026;-84
2022/01/05 12:35:19;;;;;;;29.25;19.10;;;-3.50;96.30;;;;;;5005117;28;20034;-82
2022/01/05 12:37:52;;;;;;;32.88;19.20;;;-3.40;96.30;;;;;;4987664;28;20037;-83